createdAt,value
2023-03-08T00:01:13.198Z,98442.66
2023-03-08T00:06:16.969Z,98433.25
2023-03-08T00:11:21.129Z,98448.28
2023-03-08T00:16:24.376Z,98459.59
2023-03-08T00:21:27.100Z,98462.13
2023-03-08T00:26:31.171Z,98460.97
2023-03-08T00:31:34.156Z,98440.22
2023-03-08T00:36:39.408Z,98440.59
2023-03-08T00:41:44.088Z,98446.00
2023-03-08T00:46:46.833Z,98454.25
2023-03-08T00:51:49.978Z,98459.19
2023-03-08T00:56:54.047Z,98458.16
2023-03-08T01:01:56.899Z,98461.53
2023-03-08T01:07:00.995Z,98466.94
2023-03-08T01:12:05.775Z,98467.66
2023-03-08T01:17:08.645Z,98456.84
2023-03-08T01:22:11.958Z,98469.63
2023-03-08T01:27:16.129Z,98475.56
2023-03-08T01:32:19.353Z,98479.78
2023-03-08T01:37:22.191Z,98466.47
2023-03-08T01:42:26.741Z,98470.72
2023-03-08T01:47:31.492Z,98471.56
2023-03-08T01:52:56.659Z,98467.69
2023-03-08T01:58:00.821Z,98461.63
2023-03-08T02:03:09.242Z,98461.44
2023-03-08T02:08:12.582Z,98466.69
2023-03-08T02:13:17.842Z,98466.69
2023-03-08T02:18:20.731Z,98461.28
2023-03-08T02:23:28.477Z,98448.50
2023-03-08T02:28:33.252Z,98452.91
2023-03-08T02:33:35.988Z,98453.06
2023-03-08T02:38:40.227Z,98451.22
2023-03-08T02:43:42.984Z,98460.31
2023-03-08T02:48:46.076Z,98452.06
2023-03-08T02:53:50.362Z,98466.53
2023-03-08T02:58:53.130Z,98458.28
2023-03-08T03:03:57.711Z,98459.28
2023-03-08T03:09:01.918Z,98455.22
2023-03-08T03:14:04.936Z,98457.53
2023-03-08T03:19:13.264Z,98447.38
2023-03-08T03:24:17.543Z,98461.50
2023-03-08T03:29:28.593Z,98469.38
2023-03-08T03:34:44.354Z,98476.53
2023-03-08T03:39:49.030Z,98486.09
2023-03-08T03:44:53.595Z,98487.03
2023-03-08T03:49:57.737Z,98483.25
2023-03-08T03:55:03.528Z,98490.91
2023-03-08T04:00:09.148Z,98491.50
2023-03-08T04:05:16.441Z,98481.19
2023-03-08T04:10:23.671Z,98492.59
2023-03-08T04:15:28.828Z,98496.59
2023-03-08T04:20:33.903Z,98509.66
2023-03-08T04:25:40.347Z,98491.44
2023-03-08T04:30:46.615Z,98491.16
2023-03-08T04:35:53.694Z,98494.47
2023-03-08T04:41:05.483Z,98489.00
2023-03-08T04:46:19.109Z,98483.06
2023-03-08T04:51:24.101Z,98486.34
2023-03-08T04:56:28.802Z,98476.03
2023-03-08T05:01:31.921Z,98488.94
2023-03-08T05:06:35.098Z,98490.38
2023-03-08T05:11:39.273Z,98487.13
2023-03-08T05:16:42.118Z,98490.25
2023-03-08T05:21:46.658Z,98494.38
2023-03-08T05:26:51.795Z,98492.13
2023-03-08T05:31:57.975Z,98495.28
2023-03-08T05:37:01.813Z,98486.78
2023-03-08T05:42:08.078Z,98484.38
2023-03-08T05:47:15.275Z,98469.69
2023-03-08T05:52:18.121Z,98478.06
2023-03-08T05:57:22.611Z,98490.09
2023-03-08T06:02:26.501Z,98499.44
2023-03-08T06:07:31.068Z,98488.16
2023-03-08T06:12:42.974Z,98484.03
2023-03-08T06:17:49.595Z,98489.00
2023-03-08T06:22:55.228Z,98479.25
2023-03-08T06:27:59.549Z,98493.81
2023-03-08T06:33:09.464Z,98504.03
2023-03-08T06:38:12.277Z,98494.38
2023-03-08T06:43:16.546Z,98500.91
2023-03-08T06:48:19.773Z,98497.50
2023-03-08T06:53:22.827Z,98514.78
2023-03-08T06:58:33.824Z,98506.03
2023-03-08T07:03:37.011Z,98501.63
2023-03-08T07:08:40.232Z,98500.91
2023-03-08T07:13:44.453Z,98498.22
2023-03-08T07:18:47.193Z,98493.97
2023-03-08T07:23:52.312Z,98496.66
2023-03-08T07:28:57.784Z,98488.88
2023-03-08T07:34:00.492Z,98498.09
2023-03-08T07:39:03.248Z,98494.56
2023-03-08T07:44:07.457Z,98486.50
2023-03-08T07:49:11.685Z,98482.94
2023-03-08T07:54:14.379Z,98482.94
2023-03-08T07:59:18.508Z,98480.41
2023-03-08T08:04:23.144Z,98489.28
2023-03-08T08:09:26.124Z,98502.31
2023-03-08T08:14:30.270Z,98497.31
2023-03-08T08:19:33.018Z,98481.34
2023-03-08T08:24:35.696Z,98477.22
2023-03-08T08:29:39.814Z,98468.28
2023-03-08T08:34:42.645Z,98465.91
2023-03-08T08:39:45.392Z,98465.03
2023-03-08T08:44:49.614Z,98449.41
2023-03-08T08:49:52.902Z,98437.59
2023-03-08T08:54:56.692Z,98430.94
2023-03-08T09:00:00.758Z,98413.69
2023-03-08T09:05:03.893Z,98399.28
2023-03-08T09:10:08.092Z,98399.13
2023-03-08T09:15:12.669Z,98388.50
2023-03-08T09:20:16.274Z,98379.72
2023-03-08T09:25:23.728Z,98387.19
2023-03-08T09:30:29.123Z,98378.72
2023-03-08T09:35:31.901Z,98378.13
2023-03-08T09:40:41.084Z,98377.81
2023-03-08T09:45:45.801Z,98370.31
2023-03-08T09:50:50.881Z,98366.63
2023-03-08T09:55:57.607Z,98356.88
2023-03-08T10:01:13.764Z,98357.72
2023-03-08T10:06:22.175Z,98350.38
2023-03-08T10:11:32.390Z,98344.44
2023-03-08T10:16:43.530Z,98339.91
2023-03-08T10:21:47.909Z,98332.00
2023-03-08T10:26:50.719Z,98314.31
2023-03-08T10:31:54.790Z,98308.94
2023-03-08T10:37:00.598Z,98305.41
2023-03-08T10:42:13.857Z,98284.75
2023-03-08T10:47:24.388Z,98274.72
2023-03-08T10:52:29.097Z,98268.50
2023-03-08T10:57:32.482Z,98247.00
2023-03-08T11:02:36.602Z,98243.31
2023-03-08T11:07:39.305Z,98218.28
2023-03-08T11:12:42.952Z,98209.38
2023-03-08T11:17:54.851Z,98200.63
2023-03-08T11:23:08.005Z,98190.03
2023-03-08T11:28:30.444Z,98175.75
2023-03-08T11:33:58.027Z,98163.31
2023-03-08T11:39:07.106Z,98156.38
2023-03-08T11:44:32.113Z,98160.91
2023-03-08T11:49:52.513Z,98144.09
2023-03-08T11:55:07.872Z,98139.03
2023-03-08T12:00:25.378Z,98122.19
2023-03-08T12:05:31.214Z,98124.16
2023-03-08T12:10:44.563Z,98115.41
2023-03-08T12:15:53.444Z,98114.56
2023-03-08T12:21:06.929Z,98120.25
2023-03-08T12:26:15.495Z,98115.03
2023-03-08T12:31:28.469Z,98112.50
2023-03-08T12:36:41.931Z,98112.66
2023-03-08T12:41:44.989Z,98123.69
2023-03-08T12:47:02.215Z,98095.16
2023-03-08T12:52:28.422Z,98100.38
2023-03-08T12:57:34.201Z,98088.56
2023-03-08T13:02:37.256Z,98094.97
2023-03-08T13:07:53.355Z,98089.19
2023-03-08T13:13:31.122Z,98074.84
2023-03-08T13:18:38.071Z,98062.63
2023-03-08T13:23:50.094Z,98071.56
2023-03-08T13:28:54.158Z,98069.25
2023-03-08T13:33:59.127Z,98070.63
2023-03-08T13:39:06.397Z,98057.03
2023-03-08T13:44:16.198Z,98052.50
2023-03-08T13:49:23.892Z,98050.66
2023-03-08T13:54:31.987Z,98057.88
2023-03-08T13:59:37.877Z,98057.03
2023-03-08T14:04:45.246Z,98039.03
2023-03-08T14:09:49.798Z,98038.72
2023-03-08T14:14:56.316Z,98040.00
2023-03-08T14:20:02.307Z,98034.31
2023-03-08T14:25:07.294Z,98008.25
2023-03-08T14:30:15.160Z,97988.28
2023-03-08T14:35:23.231Z,98004.25
2023-03-08T14:40:31.135Z,98001.56
2023-03-08T14:45:36.620Z,97976.34
2023-03-08T14:50:39.624Z,97972.16
2023-03-08T14:55:43.683Z,97963.25
2023-03-08T15:00:50.790Z,97973.66
2023-03-08T15:05:54.240Z,97961.75
2023-03-08T15:10:58.522Z,97961.13
2023-03-08T15:16:01.322Z,97933.25
2023-03-08T15:21:04.419Z,97927.09
2023-03-08T15:26:08.983Z,97919.03
2023-03-08T15:31:12.059Z,97921.94
2023-03-08T15:36:17.154Z,97917.59
2023-03-08T15:41:21.409Z,97920.44
2023-03-08T15:46:24.204Z,97920.97
2023-03-08T15:51:32.276Z,97916.09
2023-03-08T15:56:36.316Z,97928.72
2023-03-08T16:01:39.269Z,97922.16
2023-03-08T16:06:43.599Z,97919.97
2023-03-08T16:11:48.242Z,97904.00
2023-03-08T16:16:51.229Z,97909.19
2023-03-08T16:21:53.960Z,97911.06
2023-03-08T16:26:59.264Z,97897.78
2023-03-08T16:32:02.047Z,97892.06
2023-03-08T16:37:05.957Z,97895.09
2023-03-08T16:42:13.390Z,97892.06
2023-03-08T16:47:16.096Z,97877.91
2023-03-08T16:52:19.368Z,97877.59
2023-03-08T16:57:23.409Z,97871.38
2023-03-08T17:02:26.179Z,97846.28
2023-03-08T17:07:28.955Z,97834.53
2023-03-08T17:17:35.550Z,97864.50
2023-03-08T17:22:38.207Z,97855.91
2023-03-08T17:27:42.278Z,97869.72
2023-03-08T17:32:45.056Z,97875.28
2023-03-08T17:37:49.967Z,97871.75
2023-03-08T17:42:54.151Z,97885.69
2023-03-08T17:48:01.197Z,97867.69
2023-03-08T17:53:04.157Z,97861.81
2023-03-08T17:58:08.236Z,97869.72
2023-03-08T18:03:10.929Z,97863.66
2023-03-08T18:08:13.816Z,97876.97
2023-03-08T18:13:17.839Z,97873.06
2023-03-08T18:18:20.790Z,97877.97
2023-03-08T18:23:24.581Z,97877.47
2023-03-08T18:28:28.660Z,97870.72
2023-03-08T18:33:31.381Z,97878.44
2023-03-08T18:38:34.291Z,97858.44
2023-03-08T18:43:40.770Z,97863.47
2023-03-08T18:48:46.290Z,97871.53
2023-03-08T18:53:49.004Z,97871.41
2023-03-08T18:58:53.085Z,97878.47
2023-03-08T19:03:55.905Z,97872.41
2023-03-08T19:08:58.662Z,97869.03
2023-03-08T19:14:02.791Z,97865.84
2023-03-08T19:19:07.827Z,97864.66
2023-03-08T19:24:12.803Z,97863.47
2023-03-08T19:29:18.604Z,97855.38
2023-03-08T19:34:23.949Z,97861.09
2023-03-08T19:39:28.958Z,97858.75
2023-03-08T19:44:34.521Z,97856.06
2023-03-08T19:49:38.642Z,97855.59
2023-03-08T19:54:42.824Z,97862.28
2023-03-08T19:59:46.967Z,97858.44
2023-03-08T20:04:49.726Z,97855.75
2023-03-08T20:09:54.479Z,97862.13
2023-03-08T20:14:58.531Z,97849.19
2023-03-08T20:20:01.417Z,97855.25
2023-03-08T20:25:04.189Z,97856.25
2023-03-08T20:30:10.200Z,97868.72
2023-03-08T20:35:14.906Z,97878.47
2023-03-08T20:40:20.670Z,97875.25
2023-03-08T20:45:25.637Z,97870.72
2023-03-08T20:50:28.633Z,97875.63
2023-03-08T20:55:31.453Z,97870.72
2023-03-08T21:00:35.914Z,97859.13
2023-03-08T21:05:39.734Z,97853.22
2023-03-08T21:10:42.869Z,97836.22
2023-03-08T21:15:47.156Z,97834.50
2023-03-08T21:20:49.843Z,97829.63
2023-03-08T21:25:53.122Z,97823.03
2023-03-08T21:30:57.210Z,97822.91
2023-03-08T21:36:00.140Z,97830.31
2023-03-08T21:41:03.468Z,97832.00
2023-03-08T21:46:07.657Z,97832.16
2023-03-08T21:51:10.761Z,97830.31
2023-03-08T21:56:15.902Z,97822.03
2023-03-08T22:01:21.936Z,97820.19
2023-03-08T22:06:25.468Z,97823.75
2023-03-08T22:11:28.470Z,97806.91
2023-03-08T22:16:33.239Z,97806.41
2023-03-08T22:21:35.996Z,97802.03
2023-03-08T22:26:38.660Z,97788.91
2023-03-08T22:31:42.719Z,97789.72
2023-03-08T22:36:45.418Z,97785.34
2023-03-08T22:46:52.098Z,97782.34
2023-03-08T22:51:54.782Z,97788.91
2023-03-08T22:56:57.840Z,97803.53
2023-03-08T23:02:01.986Z,97794.97
2023-03-08T23:07:04.853Z,97782.16
2023-03-08T23:12:08.326Z,97773.25
2023-03-08T23:17:12.335Z,97784.34
2023-03-08T23:22:15.032Z,97774.97
2023-03-08T23:27:17.784Z,97755.91
2023-03-08T23:32:21.950Z,97765.38
2023-03-08T23:37:24.660Z,97765.88
2023-03-08T23:42:27.512Z,97755.59
2023-03-08T23:47:31.832Z,97744.31
2023-03-08T23:52:34.556Z,97727.69
2023-03-08T23:57:37.237Z,97737.94
